createdAt,value
2023-02-09T00:01:27.345Z,5.57
2023-02-09T00:03:53.996Z,6.45
2023-02-09T00:06:22.213Z,4.75
2023-02-09T00:08:49.389Z,6.15
2023-02-09T00:11:43.444Z,8.80
2023-02-09T00:14:11.167Z,6.18
2023-02-09T00:16:37.863Z,6.32
2023-02-09T00:19:04.584Z,5.93
2023-02-09T00:21:31.436Z,6.40
2023-02-09T00:23:59.394Z,6.43
2023-02-09T00:26:26.384Z,5.40
2023-02-09T00:28:53.349Z,7.07
2023-02-09T00:31:20.160Z,6.93
2023-02-09T00:33:46.942Z,7.10
2023-02-09T00:36:14.468Z,5.43
2023-02-09T00:38:43.869Z,6.07
2023-02-09T00:41:11.572Z,5.18
2023-02-09T00:43:38.366Z,6.60
2023-02-09T00:46:05.554Z,6.28
2023-02-09T00:48:32.404Z,4.75
2023-02-09T00:50:59.618Z,6.25
2023-02-09T00:53:26.246Z,5.47
2023-02-09T00:55:52.925Z,5.13
2023-02-09T00:58:19.859Z,5.78
2023-02-09T01:00:46.901Z,8.15
2023-02-09T01:03:13.738Z,6.80
2023-02-09T01:05:41.990Z,6.25
2023-02-09T01:08:08.925Z,7.70
2023-02-09T01:10:36.736Z,5.10
2023-02-09T01:13:03.420Z,5.57
2023-02-09T01:15:30.074Z,6.90
2023-02-09T01:17:58.564Z,6.35
2023-02-09T01:20:25.165Z,4.97
2023-02-09T01:22:51.816Z,7.75
2023-02-09T01:25:18.521Z,4.60
2023-02-09T01:27:45.078Z,5.22
2023-02-09T01:30:12.299Z,9.60
2023-02-09T01:32:38.911Z,7.00
2023-02-09T01:35:06.015Z,6.18
2023-02-09T01:37:34.373Z,5.88
2023-02-09T01:40:01.482Z,7.18
2023-02-09T01:42:28.310Z,6.47
2023-02-09T01:45:18.841Z,5.93
2023-02-09T01:47:50.592Z,6.72
2023-02-09T01:50:17.909Z,6.07
2023-02-09T01:52:48.060Z,7.00
2023-02-09T01:55:20.476Z,5.43
2023-02-09T01:57:52.580Z,6.38
2023-02-09T02:00:21.433Z,8.20
2023-02-09T02:02:52.539Z,6.05
2023-02-09T02:05:20.963Z,5.65
2023-02-09T02:08:06.451Z,5.13
2023-02-09T02:10:33.685Z,6.30
2023-02-09T02:13:01.289Z,7.53
2023-02-09T02:15:36.067Z,6.47
2023-02-09T02:18:29.052Z,5.72
2023-02-09T02:21:33.354Z,5.93
2023-02-09T02:24:12.022Z,5.15
2023-02-09T02:26:51.667Z,7.53
2023-02-09T02:29:28.101Z,7.70
2023-02-09T02:32:12.786Z,7.00
2023-02-09T02:34:45.350Z,6.85
2023-02-09T02:37:17.654Z,6.82
2023-02-09T02:40:01.541Z,9.90
2023-02-09T02:42:49.597Z,7.40
2023-02-09T02:45:42.321Z,6.35
2023-02-09T02:48:30.928Z,8.15
2023-02-09T02:51:23.114Z,6.78
2023-02-09T02:53:55.896Z,6.53
2023-02-09T02:56:30.070Z,5.72
2023-02-09T02:58:59.807Z,7.63
2023-02-09T03:01:30.934Z,5.38
2023-02-09T03:04:00.952Z,6.60
2023-02-09T03:06:27.540Z,6.63
2023-02-09T03:08:56.538Z,7.45
2023-02-09T03:11:27.603Z,5.40
2023-02-09T03:14:22.682Z,6.90
2023-02-09T03:16:56.728Z,6.50
2023-02-09T03:20:06.866Z,6.50
2023-02-09T03:22:40.435Z,6.60
2023-02-09T03:25:19.875Z,6.03
2023-02-09T03:28:01.251Z,7.43
2023-02-09T03:30:28.111Z,6.65
2023-02-09T03:32:56.236Z,6.18
2023-02-09T03:35:25.914Z,5.70
2023-02-09T03:37:52.578Z,5.53
2023-02-09T03:40:19.705Z,4.95
2023-02-09T03:42:46.321Z,9.98
2023-02-09T03:45:12.894Z,6.25
2023-02-09T03:47:39.465Z,6.40
2023-02-09T03:50:07.406Z,6.63
2023-02-09T03:52:34.384Z,5.72
2023-02-09T03:55:01.550Z,5.22
2023-02-09T03:57:28.220Z,5.22
2023-02-09T03:59:54.804Z,6.47
2023-02-09T04:02:21.448Z,7.13
2023-02-09T04:04:48.067Z,6.53
2023-02-09T04:07:15.185Z,6.65
2023-02-09T04:09:41.837Z,7.63
2023-02-09T04:12:08.425Z,7.35
2023-02-09T04:14:35.027Z,5.78
2023-02-09T04:17:01.680Z,6.03
2023-02-09T04:19:28.317Z,7.22
2023-02-09T04:21:54.890Z,6.30
2023-02-09T04:24:21.757Z,5.65
2023-02-09T04:26:48.531Z,5.55
2023-02-09T04:29:15.168Z,6.63
2023-02-09T04:31:42.493Z,9.95
2023-02-09T04:34:09.209Z,6.05
2023-02-09T04:36:35.904Z,7.65
2023-02-09T04:39:02.594Z,6.93
2023-02-09T04:41:29.226Z,5.55
2023-02-09T04:43:55.845Z,4.93
2023-02-09T04:46:22.479Z,5.75
2023-02-09T04:48:49.085Z,8.00
2023-02-09T04:51:15.753Z,5.65
2023-02-09T04:53:42.630Z,10.50
2023-02-09T04:56:15.216Z,7.68
2023-02-09T04:59:01.392Z,6.40
2023-02-09T05:01:28.480Z,6.63
2023-02-09T05:03:55.339Z,7.38
2023-02-09T05:06:22.069Z,6.10
2023-02-09T05:08:48.900Z,6.45
2023-02-09T05:11:15.856Z,8.00
2023-02-09T05:13:42.588Z,5.72
2023-02-09T05:16:13.344Z,10.60
2023-02-09T05:18:39.966Z,7.55
2023-02-09T05:21:06.620Z,5.88
2023-02-09T05:23:33.694Z,5.38
2023-02-09T05:26:00.353Z,5.07
2023-02-09T05:28:27.145Z,6.30
2023-02-09T05:30:54.136Z,7.13
2023-02-09T05:33:22.692Z,11.50
2023-02-09T05:35:50.418Z,10.07
2023-02-09T05:38:17.106Z,6.78
2023-02-09T05:40:45.241Z,10.07
2023-02-09T05:43:12.166Z,6.18
2023-02-09T05:45:39.058Z,6.35
2023-02-09T05:48:05.833Z,5.90
2023-02-09T05:50:32.483Z,8.60
2023-02-09T05:53:00.529Z,7.22
2023-02-09T05:55:27.493Z,11.05
2023-02-09T05:57:54.093Z,6.75
2023-02-09T06:00:20.869Z,8.50
2023-02-09T06:02:47.555Z,6.18
2023-02-09T06:05:14.219Z,7.60
2023-02-09T06:07:40.859Z,10.80
2023-02-09T06:10:08.009Z,6.13
2023-02-09T06:12:34.603Z,5.43
2023-02-09T06:15:01.246Z,9.70
2023-02-09T06:17:27.836Z,5.75
2023-02-09T06:19:54.429Z,5.97
2023-02-09T06:22:21.118Z,6.20
2023-02-09T06:24:47.680Z,7.97
2023-02-09T06:27:14.298Z,10.77
2023-02-09T06:29:40.908Z,6.60
2023-02-09T06:32:07.667Z,5.05
2023-02-09T06:34:34.542Z,6.55
2023-02-09T06:37:01.150Z,5.85
2023-02-09T06:39:27.921Z,5.90
2023-02-09T06:41:54.484Z,4.40
2023-02-09T06:44:21.222Z,6.75
2023-02-09T06:46:47.837Z,5.88
2023-02-09T06:49:14.508Z,5.85
2023-02-09T06:51:41.437Z,6.05
2023-02-09T06:54:08.323Z,7.65
2023-02-09T06:56:34.952Z,6.53
2023-02-09T06:59:01.510Z,6.95
2023-02-09T07:01:28.105Z,5.22
2023-02-09T07:03:54.709Z,8.07
2023-02-09T07:06:22.157Z,6.03
2023-02-09T07:08:49.823Z,8.57
2023-02-09T07:11:20.135Z,5.78
2023-02-09T07:13:47.029Z,5.90
2023-02-09T07:16:14.055Z,5.30
2023-02-09T07:18:41.063Z,11.05
2023-02-09T07:21:10.561Z,6.50
2023-02-09T07:23:37.666Z,6.15
2023-02-09T07:26:06.658Z,4.35
2023-02-09T07:28:35.059Z,8.27
2023-02-09T07:31:07.198Z,5.63
2023-02-09T07:33:34.875Z,8.15
2023-02-09T07:36:04.691Z,10.00
2023-02-09T07:38:31.559Z,5.05
2023-02-09T07:41:03.137Z,6.85
2023-02-09T07:43:29.778Z,5.07
2023-02-09T07:46:04.703Z,7.65
2023-02-09T07:48:32.148Z,6.47
2023-02-09T07:50:58.913Z,12.07
2023-02-09T07:53:26.054Z,4.20
2023-02-09T07:55:52.973Z,4.97
2023-02-09T07:58:20.222Z,6.55
2023-02-09T08:00:48.349Z,8.13
2023-02-09T08:03:18.112Z,4.30
2023-02-09T08:06:06.302Z,7.10
2023-02-09T08:08:32.914Z,5.30
2023-02-09T08:11:02.138Z,6.45
2023-02-09T08:13:33.939Z,7.82
2023-02-09T08:16:04.724Z,6.90
2023-02-09T08:18:59.753Z,7.70
2023-02-09T08:21:29.049Z,7.25
2023-02-09T08:23:57.786Z,6.40
2023-02-09T08:26:24.457Z,6.28
2023-02-09T08:28:53.272Z,7.82
2023-02-09T08:31:21.935Z,4.53
2023-02-09T08:33:50.342Z,4.82
2023-02-09T08:36:18.596Z,4.68
2023-02-09T08:38:45.713Z,6.55
2023-02-09T08:41:15.012Z,7.15
2023-02-09T08:43:41.838Z,4.85
2023-02-09T08:46:10.973Z,8.10
2023-02-09T08:48:41.658Z,13.48
2023-02-09T08:51:09.650Z,5.55
2023-02-09T08:53:36.625Z,4.63
2023-02-09T08:56:03.675Z,5.63
2023-02-09T08:58:30.323Z,7.25
2023-02-09T09:00:57.137Z,5.53
2023-02-09T09:03:27.741Z,6.90
2023-02-09T09:06:02.871Z,8.80
2023-02-09T09:08:31.016Z,7.15
2023-02-09T09:10:58.197Z,8.00
2023-02-09T09:13:25.395Z,7.07
2023-02-09T09:15:52.719Z,6.15
2023-02-09T09:18:19.375Z,6.10
2023-02-09T09:20:45.955Z,9.35
2023-02-09T09:23:13.144Z,5.95
2023-02-09T09:25:40.749Z,8.60
2023-02-09T09:28:08.176Z,9.32
2023-02-09T09:30:35.648Z,5.80
2023-02-09T09:33:02.811Z,6.00
2023-02-09T09:35:30.917Z,7.10
2023-02-09T09:37:58.415Z,7.80
2023-02-09T09:40:31.523Z,6.38
2023-02-09T09:43:08.684Z,4.80
2023-02-09T09:45:38.603Z,4.78
2023-02-09T09:48:08.900Z,4.78
2023-02-09T09:50:41.369Z,5.70
2023-02-09T09:53:25.324Z,5.85
2023-02-09T09:55:59.497Z,4.70
2023-02-09T09:58:28.776Z,10.07
2023-02-09T10:00:55.880Z,8.07
2023-02-09T10:03:23.835Z,7.72
2023-02-09T10:05:55.878Z,6.43
2023-02-09T10:08:59.735Z,9.43
2023-02-09T10:11:34.710Z,7.45
2023-02-09T10:14:01.329Z,9.82
2023-02-09T10:16:34.821Z,7.20
2023-02-09T10:19:06.783Z,10.88
2023-02-09T10:21:36.243Z,10.82
2023-02-09T10:24:14.871Z,8.30
2023-02-09T10:26:42.832Z,6.63
2023-02-09T10:29:12.311Z,11.20
2023-02-09T10:31:43.284Z,10.20
2023-02-09T10:34:12.953Z,7.28
2023-02-09T10:37:20.909Z,7.95
2023-02-09T10:40:23.569Z,5.30
2023-02-09T10:43:19.427Z,11.18
2023-02-09T10:45:48.438Z,7.93
2023-02-09T10:48:20.184Z,10.57
2023-02-09T10:50:52.049Z,6.18
2023-02-09T10:53:36.809Z,7.53
2023-02-09T10:56:03.498Z,6.50
2023-02-09T10:58:37.821Z,6.43
2023-02-09T11:01:24.021Z,7.78
2023-02-09T11:04:04.353Z,6.80
2023-02-09T11:06:44.135Z,10.93
2023-02-09T11:09:18.136Z,7.40
2023-02-09T11:11:45.519Z,11.65
2023-02-09T11:14:14.969Z,10.00
2023-02-09T11:16:53.607Z,9.93
2023-02-09T11:19:22.289Z,10.68
2023-02-09T11:21:56.123Z,7.63
2023-02-09T11:24:53.022Z,9.40
2023-02-09T11:27:31.570Z,10.38
2023-02-09T11:30:31.098Z,9.75
2023-02-09T11:33:10.476Z,4.10
2023-02-09T11:36:08.001Z,7.57
2023-02-09T11:38:51.261Z,10.07
2023-02-09T11:42:01.960Z,8.15
2023-02-09T11:44:37.171Z,9.75
2023-02-09T11:47:09.929Z,10.10
2023-02-09T11:49:54.013Z,9.65
2023-02-09T11:52:38.209Z,10.13
2023-02-09T11:55:27.619Z,9.65
2023-02-09T11:58:12.386Z,11.50
2023-02-09T12:00:56.227Z,10.38
2023-02-09T12:03:26.747Z,9.88
2023-02-09T12:05:54.510Z,7.72
2023-02-09T12:08:57.674Z,9.98
2023-02-09T12:11:36.164Z,8.93
2023-02-09T12:14:02.736Z,9.32
2023-02-09T12:16:40.505Z,9.27
2023-02-09T12:19:26.429Z,4.60
2023-02-09T12:21:53.111Z,10.65
2023-02-09T12:24:40.015Z,10.73
2023-02-09T12:27:25.874Z,8.48
2023-02-09T12:29:52.506Z,9.73
2023-02-09T12:32:43.415Z,10.30
2023-02-09T12:35:36.438Z,9.80
2023-02-09T12:38:19.022Z,11.05
2023-02-09T12:41:05.206Z,11.02
2023-02-09T12:43:37.489Z,9.57
2023-02-09T12:46:28.367Z,11.43
2023-02-09T12:49:03.974Z,11.57
2023-02-09T12:51:50.591Z,11.32
2023-02-09T12:54:48.412Z,10.25
2023-02-09T12:57:15.014Z,9.77
2023-02-09T12:59:55.147Z,10.18
2023-02-09T13:02:27.320Z,9.93
2023-02-09T13:05:13.363Z,9.32
2023-02-09T13:08:04.207Z,9.70
2023-02-09T13:10:43.087Z,10.30
2023-02-09T13:13:12.705Z,9.27
2023-02-09T13:16:04.675Z,9.02
2023-02-09T13:18:41.104Z,7.75
2023-02-09T13:21:14.054Z,8.05
2023-02-09T13:23:43.690Z,7.18
2023-02-09T13:26:25.389Z,10.30
2023-02-09T13:29:20.410Z,6.63
2023-02-09T13:32:15.759Z,8.75
2023-02-09T13:35:07.895Z,10.15
2023-02-09T13:37:44.820Z,7.97
2023-02-09T13:40:21.026Z,8.80
2023-02-09T13:43:02.966Z,8.60
2023-02-09T13:45:30.125Z,9.25
2023-02-09T13:48:04.052Z,9.40
2023-02-09T13:50:31.921Z,9.35
2023-02-09T13:53:09.671Z,10.48
2023-02-09T13:55:39.873Z,9.75
2023-02-09T13:58:14.025Z,8.98
2023-02-09T14:00:58.288Z,10.77
2023-02-09T14:03:29.643Z,11.07
2023-02-09T14:06:10.604Z,11.93
2023-02-09T14:08:40.346Z,10.45
2023-02-09T14:11:42.328Z,7.60
2023-02-09T14:14:15.443Z,9.90
2023-02-09T14:16:52.997Z,11.20
2023-02-09T14:19:30.671Z,10.70
2023-02-09T14:21:57.504Z,9.80
2023-02-09T14:24:26.672Z,8.60
2023-02-09T14:27:05.474Z,10.50
2023-02-09T14:29:37.257Z,10.48
2023-02-09T14:32:34.081Z,11.07
2023-02-09T14:35:19.691Z,10.88
2023-02-09T14:37:48.156Z,10.07
2023-02-09T14:40:30.878Z,10.40
2023-02-09T14:43:22.088Z,8.55
2023-02-09T14:45:59.159Z,10.13
2023-02-09T14:48:28.329Z,10.52
2023-02-09T14:50:57.608Z,10.07
2023-02-09T14:53:27.957Z,10.63
2023-02-09T14:55:55.748Z,9.45
2023-02-09T14:58:28.030Z,7.32
2023-02-09T15:00:57.110Z,10.98
2023-02-09T15:03:23.795Z,9.73
2023-02-09T15:05:52.067Z,10.23
2023-02-09T15:08:22.331Z,11.50
2023-02-09T15:10:53.304Z,12.35
2023-02-09T15:13:20.906Z,11.82
2023-02-09T15:15:48.071Z,10.38
2023-02-09T15:18:19.572Z,11.55
2023-02-09T15:20:46.334Z,10.75
2023-02-09T15:23:13.293Z,12.30
2023-02-09T15:25:40.658Z,12.02
2023-02-09T15:28:18.638Z,11.43
2023-02-09T15:30:45.854Z,11.82
2023-02-09T15:33:13.073Z,13.20
2023-02-09T15:35:41.005Z,11.30
2023-02-09T15:38:10.961Z,11.85
2023-02-09T15:41:00.511Z,11.43
2023-02-09T15:43:46.126Z,13.30
2023-02-09T15:46:13.423Z,12.57
2023-02-09T15:48:40.144Z,12.13
2023-02-09T15:51:07.249Z,11.32
2023-02-09T15:53:33.950Z,11.65
2023-02-09T15:56:00.675Z,12.10
2023-02-09T15:58:36.496Z,11.52
2023-02-09T16:01:04.551Z,12.55
2023-02-09T16:03:31.784Z,12.90
2023-02-09T16:06:04.448Z,11.50
2023-02-09T16:08:37.389Z,12.25
2023-02-09T16:11:09.301Z,12.88
2023-02-09T16:13:36.434Z,13.93
2023-02-09T16:16:16.232Z,14.60
2023-02-09T16:18:52.584Z,12.20
2023-02-09T16:21:27.866Z,12.98
2023-02-09T16:23:57.920Z,12.85
2023-02-09T16:26:25.778Z,13.25
2023-02-09T16:28:53.256Z,12.93
2023-02-09T16:31:21.105Z,13.07
2023-02-09T16:33:48.736Z,14.35
2023-02-09T16:36:20.658Z,14.48
2023-02-09T16:38:47.903Z,13.32
2023-02-09T16:41:36.268Z,12.85
2023-02-09T16:44:26.146Z,13.23
2023-02-09T16:46:55.035Z,5.00
2023-02-09T16:49:41.423Z,10.02
2023-02-09T16:52:25.742Z,8.95
2023-02-09T16:54:55.611Z,11.13
2023-02-09T16:57:23.557Z,10.25
2023-02-09T16:59:51.792Z,11.50
2023-02-09T17:02:35.673Z,12.02
2023-02-09T17:05:13.280Z,15.68
2023-02-09T17:07:53.540Z,10.02
2023-02-09T17:10:24.134Z,14.55
2023-02-09T17:12:53.217Z,9.93
2023-02-09T17:15:30.068Z,10.60
2023-02-09T17:18:02.467Z,13.45
2023-02-09T17:20:38.193Z,13.38
2023-02-09T17:23:05.548Z,13.70
2023-02-09T17:25:32.250Z,14.38
2023-02-09T17:27:59.132Z,14.68
2023-02-09T17:30:25.859Z,12.25
2023-02-09T17:33:00.135Z,12.80
2023-02-09T17:35:53.060Z,13.77
2023-02-09T17:38:34.443Z,14.18
2023-02-09T17:41:04.820Z,11.30
2023-02-09T17:43:31.663Z,14.27
2023-02-09T17:45:58.436Z,14.23
2023-02-09T17:48:25.024Z,14.20
2023-02-09T17:50:52.897Z,14.32
2023-02-09T17:53:22.919Z,14.13
2023-02-09T17:55:50.770Z,14.27
2023-02-09T17:58:17.912Z,14.93
2023-02-09T18:00:45.327Z,15.45
2023-02-09T18:03:15.638Z,15.48
2023-02-09T18:05:43.273Z,14.07
2023-02-09T18:08:10.208Z,12.70
2023-02-09T18:10:37.456Z,7.78
2023-02-09T18:13:04.127Z,11.05
2023-02-09T18:15:34.929Z,16.20
2023-02-09T18:18:01.789Z,14.93
2023-02-09T18:20:30.929Z,11.60
2023-02-09T18:22:57.948Z,10.93
2023-02-09T18:25:31.757Z,14.38
2023-02-09T18:27:58.522Z,18.23
2023-02-09T18:30:29.164Z,9.40
2023-02-09T18:32:56.614Z,17.85
2023-02-09T18:35:38.270Z,15.27
2023-02-09T18:38:06.888Z,13.52
2023-02-09T18:40:34.031Z,15.07
2023-02-09T18:43:02.205Z,12.43
2023-02-09T18:45:30.680Z,16.40
2023-02-09T18:47:57.668Z,17.83
2023-02-09T18:50:27.411Z,15.80
2023-02-09T18:52:56.455Z,17.08
2023-02-09T18:55:24.690Z,18.83
2023-02-09T18:57:52.336Z,17.98
2023-02-09T19:00:20.288Z,17.95
2023-02-09T19:02:48.136Z,14.70
2023-02-09T19:05:17.201Z,19.77
2023-02-09T19:07:44.747Z,14.55
2023-02-09T19:10:17.460Z,18.20
2023-02-09T19:12:45.247Z,15.38
2023-02-09T19:15:25.527Z,18.00
2023-02-09T19:17:52.120Z,16.27
2023-02-09T19:20:21.766Z,17.27
2023-02-09T19:22:51.468Z,19.08
2023-02-09T19:25:19.739Z,15.85
2023-02-09T19:27:46.402Z,18.75
2023-02-09T19:30:21.300Z,18.13
2023-02-09T19:32:47.904Z,17.25
2023-02-09T19:35:14.814Z,17.75
2023-02-09T19:37:41.910Z,20.27
2023-02-09T19:40:20.817Z,18.73
2023-02-09T19:42:48.385Z,19.50
2023-02-09T19:45:15.421Z,19.88
2023-02-09T19:47:42.172Z,18.38
2023-02-09T19:50:10.139Z,19.50
2023-02-09T19:52:38.137Z,20.75
2023-02-09T19:55:05.514Z,23.10
2023-02-09T19:57:32.507Z,20.08
2023-02-09T19:59:59.153Z,22.25
2023-02-09T20:02:25.768Z,20.63
2023-02-09T20:04:52.364Z,19.95
2023-02-09T20:07:18.979Z,20.85
2023-02-09T20:09:45.602Z,21.00
2023-02-09T20:12:12.267Z,20.17
2023-02-09T20:14:38.907Z,23.38
2023-02-09T20:17:05.553Z,20.27
2023-02-09T20:19:35.682Z,22.40
2023-02-09T20:22:02.718Z,21.20
2023-02-09T20:24:29.317Z,20.67
2023-02-09T20:26:55.905Z,21.17
2023-02-09T20:29:22.897Z,23.58
2023-02-09T20:31:49.798Z,24.23
2023-02-09T20:34:16.873Z,22.33
2023-02-09T20:36:45.754Z,22.73
2023-02-09T20:39:15.878Z,21.10
2023-02-09T20:42:05.375Z,21.25
2023-02-09T20:44:51.728Z,19.80
2023-02-09T20:47:18.799Z,21.95
2023-02-09T20:49:45.701Z,20.38
2023-02-09T20:52:12.449Z,20.45
2023-02-09T20:54:39.241Z,20.50
2023-02-09T20:57:06.043Z,21.05
2023-02-09T20:59:33.936Z,19.67
2023-02-09T21:02:01.180Z,21.67
2023-02-09T21:04:29.908Z,20.90
2023-02-09T21:06:57.500Z,20.27
2023-02-09T21:09:26.383Z,20.30
2023-02-09T21:11:54.243Z,20.20
2023-02-09T21:14:27.920Z,20.33
2023-02-09T21:17:05.781Z,21.92
2023-02-09T21:19:34.004Z,22.98
2023-02-09T21:22:00.599Z,24.05
2023-02-09T21:24:27.159Z,23.42
2023-02-09T21:26:53.909Z,22.63
2023-02-09T21:29:20.503Z,23.13
2023-02-09T21:31:47.292Z,22.55
2023-02-09T21:34:15.724Z,25.48
2023-02-09T21:36:42.546Z,23.45
2023-02-09T21:39:09.178Z,23.50
2023-02-09T21:41:54.520Z,23.13
2023-02-09T21:44:21.128Z,25.38
2023-02-09T21:46:48.948Z,22.45
2023-02-09T21:49:16.119Z,23.42
2023-02-09T21:51:42.917Z,23.92
2023-02-09T21:54:17.267Z,23.67
2023-02-09T21:56:44.658Z,26.23
2023-02-09T21:59:11.447Z,26.75
2023-02-09T22:01:38.231Z,24.73
2023-02-09T22:04:05.074Z,23.92
2023-02-09T22:06:32.004Z,25.70
2023-02-09T22:09:02.365Z,25.60
2023-02-09T22:11:29.609Z,22.73
2023-02-09T22:13:56.478Z,25.13
2023-02-09T22:16:23.823Z,25.38
2023-02-09T22:18:51.070Z,25.85
2023-02-09T22:21:17.744Z,24.80
2023-02-09T22:23:44.693Z,24.73
2023-02-09T22:26:14.625Z,23.50
2023-02-09T22:28:41.773Z,23.77
2023-02-09T22:31:17.704Z,23.85
2023-02-09T22:33:44.613Z,23.67
2023-02-09T22:36:13.885Z,24.98
2023-02-09T22:38:41.022Z,23.40
2023-02-09T22:41:27.391Z,22.00
2023-02-09T22:44:09.816Z,22.88
2023-02-09T22:46:38.663Z,26.15
2023-02-09T22:49:12.462Z,23.83
2023-02-09T22:51:39.121Z,22.30
2023-02-09T22:54:06.544Z,24.83
2023-02-09T22:56:33.866Z,23.67
2023-02-09T22:59:01.283Z,23.30
2023-02-09T23:01:29.266Z,23.73
2023-02-09T23:03:56.815Z,27.08
2023-02-09T23:06:27.206Z,20.20
2023-02-09T23:08:59.591Z,24.25
2023-02-09T23:11:27.896Z,24.63
2023-02-09T23:14:08.507Z,26.98
2023-02-09T23:16:36.532Z,27.92
2023-02-09T23:19:06.158Z,23.70
2023-02-09T23:21:38.729Z,25.80
2023-02-09T23:24:05.894Z,24.45
2023-02-09T23:26:32.832Z,23.55
2023-02-09T23:29:01.849Z,25.45
2023-02-09T23:31:28.634Z,25.42
2023-02-09T23:33:55.860Z,26.23
2023-02-09T23:36:25.238Z,28.15
2023-02-09T23:38:54.076Z,25.48
2023-02-09T23:41:20.709Z,25.83
2023-02-09T23:43:47.898Z,25.17
2023-02-09T23:46:17.500Z,26.33
2023-02-09T23:48:44.899Z,26.10
2023-02-09T23:51:14.317Z,25.67
2023-02-09T23:53:41.231Z,25.95
2023-02-09T23:56:08.368Z,24.65
2023-02-09T23:58:39.177Z,24.60
